Latest Weather Observations for Kununurra Airport

IDW60801

Issued at 8:35 pm WST Friday 18 April 2014 (issued every 30 minutes, with the page automatically refreshed every 10 minutes)

About weather observations | Map of weather stations | Latest weather observations for WA | Other Formats
Station Details ID: 002056 Name: KUNUNURRA AERO Lat: -15.78 Lon: 128.71 Height: 44.0 m
Data from the previous 72 hours. | See also: Recent months at Kununurra Airport
Date/Time
WST
Temp
°C
App
Temp
°C
Dew
Point
Rel
Hum
%
Delta-T
°C
Wind Press
QNH
hPa
Press
MSL
hPa
Rain
since 9 am
mm
Dir
 
Spd
km/h
Gust
km/h
Spd
kts
Gust
kts
18/07:00pm 27.0 27.8 16.3 52 6.6 S 7 9 4 5 1012.3 - -
18/06:00pm 29.9 28.8 13.1 35 10.0 ESE 11 13 6 7 1011.6 1011.3 -
18/04:00pm 33.6 30.7 12.8 28 12.5 E 20 26 11 14 1010.4 - -
18/03:30pm 33.8 29.9 12.2 27 12.9 E 24 33 13 18 1010.2 - -
18/03:00pm 34.3 30.0 12.0 25 13.3 ESE 26 33 14 18 1010.3 1010.0 -
18/02:30pm 34.4 31.3 12.1 26 13.3 ESE 20 30 11 16 1010.4 - -
18/02:00pm 34.3 29.8 11.5 25 13.5 ESE 26 41 14 22 1010.4 - -
18/01:30pm 35.0 31.3 11.6 24 13.9 ESE 22 33 12 18 1010.7 - -
18/08:00am 29.0 27.4 14.9 42 8.6 SSE 17 22 9 12 1013.6 - 0.0
18/07:30am 27.5 27.9 15.2 47 7.5 S 7 11 4 6 1013.4 - 0.0
18/07:00am 25.6 27.6 15.9 55 5.9 CALM 0 4 0 2 1013.2 - 0.0
18/06:30am 24.3 25.0 15.5 58 5.3 SSW 6 7 3 4 1013.0 - 0.0
18/06:00am 24.2 24.5 14.4 54 5.8 SE 6 11 3 6 1012.7 1012.4 0.0
18/05:30am 24.6 23.8 13.9 51 6.3 SSE 11 13 6 7 1012.4 - 0.0
18/05:00am 22.6 23.5 16.2 67 3.9 WSW 6 7 3 4 1012.4 - 0.0
18/04:30am 22.1 23.8 16.2 69 3.6 SSE 2 7 1 4 1012.1 - 0.0
18/04:00am 23.8 24.4 15.3 59 5.1 SSE 6 9 3 5 1011.8 - 0.0
18/03:30am 24.1 25.1 16.4 62 4.7 SSE 6 9 3 5 1011.6 - 0.0
18/03:00am 26.8 26.4 13.0 42 8.1 ESE 7 9 4 5 1011.6 1011.3 0.0
18/02:30am 27.2 26.5 13.1 41 8.3 SSE 9 11 5 6 1011.6 - 0.0
18/02:00am 27.8 26.7 12.1 37 9.1 SSE 9 11 5 6 1011.5 - 0.0
18/01:30am 27.8 26.8 12.4 38 9.0 SSE 9 13 5 7 1011.7 - 0.0
18/01:00am 28.2 27.2 12.2 37 9.3 SSE 9 13 5 7 1011.7 - 0.0
18/12:30am 28.2 26.9 12.5 37 9.2 SSE 11 15 6 8 1011.9 - 0.0
18/12:00am 27.9 26.3 12.7 39 8.9 SSE 13 15 7 8 1012.3 1012.0 0.0
 
Date/Time
WST
Temp
°C
App
Temp
°C
Dew
Point
Rel
Hum
%
Delta-T
°C
Wind Press
QNH
hPa
Press
MSL
hPa
Rain
since 9 am
mm
Dir
 
Spd
km/h
Gust
km/h
Spd
kts
Gust
kts
17/11:30pm 27.9 27.2 13.2 40 8.7 SSE 9 13 5 7 1012.6 - 0.0
17/11:00pm 28.0 27.4 13.5 41 8.6 SSE 9 13 5 7 1012.7 - 0.0
17/10:30pm 28.3 27.3 13.5 40 8.8 SE 11 13 6 7 1012.8 - 0.0
17/10:00pm 27.8 26.8 14.5 44 8.0 SSE 13 15 7 8 1012.9 - 0.0
17/09:30pm 27.5 27.3 15.8 48 7.2 SSE 11 15 6 8 1012.9 - 0.0
17/09:00pm 26.4 27.6 16.9 56 5.9 S 6 11 3 6 1012.9 1012.6 0.0
17/08:30pm 25.6 28.6 18.5 65 4.5 CALM 0 0 0 0 1012.8 - 0.0
17/08:00pm 25.5 27.4 18.6 65 4.4 S 6 7 3 4 1012.6 - 0.0
17/07:30pm 25.1 27.3 19.5 71 3.6 S 7 9 4 5 1012.4 - 0.0
17/07:00pm 26.2 28.5 18.5 62 4.9 SSW 4 7 2 4 1011.9 - 0.0
17/06:30pm 28.4 30.4 15.9 46 7.7 CALM 0 0 0 0 1011.4 - 0.0
17/06:00pm 30.6 30.3 14.3 37 9.9 E 9 9 5 5 1011.0 1010.7 0.0
17/05:30pm 30.5 29.8 14.4 37 9.8 ESE 11 15 6 8 1010.6 - 0.0
17/05:00pm 32.1 30.8 13.8 33 11.1 ESE 13 17 7 9 1010.2 - 0.0
17/04:30pm 33.6 31.6 12.8 28 12.5 ESE 15 20 8 11 1009.9 - 0.0
17/04:00pm 34.4 31.6 12.6 26 13.1 E 19 26 10 14 1009.7 - 0.0
17/03:30pm 34.7 30.8 12.1 25 13.5 E 24 30 13 16 1009.4 - 0.0
17/03:00pm 34.9 31.6 11.7 24 13.8 SE 20 30 11 16 1009.4 1009.1 0.0
17/02:30pm 35.2 32.2 11.9 24 13.9 ESE 19 26 10 14 1009.5 - 0.0
17/02:00pm 35.1 31.5 11.8 24 13.9 ESE 22 32 12 17 1009.8 - 0.0
17/01:30pm 35.0 31.8 11.3 23 14.0 ESE 19 28 10 15 1010.2 - 0.0
17/01:00pm 34.9 31.4 12.2 25 13.6 ESE 22 28 12 15 1010.5 - 0.0
17/12:30pm 35.0 32.3 12.8 26 13.4 SE 19 24 10 13 1010.9 - 0.0
17/12:00pm 34.2 30.5 11.5 25 13.4 SE 22 32 12 17 1011.3 1011.0 0.0
17/11:30am 34.4 31.0 12.4 26 13.2 E 22 32 12 17 1011.8 - 0.0
17/11:00am 33.4 29.8 11.7 26 12.8 ESE 22 30 12 16 1012.4 - 0.0
17/10:30am 32.8 29.9 12.3 28 12.2 E 19 24 10 13 1012.8 - 0.0
17/10:00am 32.4 29.0 12.6 30 11.8 ESE 22 32 12 17 1013.2 - 0.0
17/09:30am 31.5 26.6 11.4 29 11.7 ESE 28 37 15 20 1013.7 - 0.0
17/09:00am 30.8 27.3 10.8 29 11.5 SE 20 28 11 15 1013.7 1013.4 0.0
17/08:30am 30.5 27.8 12.8 33 10.5 ESE 19 20 10 11 1013.6 - 0.0
17/08:00am 28.7 27.9 14.0 40 8.8 SSE 11 15 6 8 1013.7 - 0.0
17/07:30am 26.8 25.7 14.3 46 7.5 SSE 13 17 7 9 1013.4 - 0.0
17/07:00am 26.4 25.6 14.1 46 7.3 SSE 11 15 6 8 1013.3 - 0.0
17/06:30am 25.0 24.6 14.2 51 6.4 SSE 9 15 5 8 1013.0 - 0.0
17/06:00am 23.8 23.1 14.3 55 5.6 SSE 11 13 6 7 1012.7 1012.4 0.0
17/05:30am 24.2 23.1 13.0 49 6.5 SSE 11 13 6 7 1012.4 - 0.0
17/05:00am 24.1 23.0 13.1 50 6.4 S 11 15 6 8 1012.0 - 0.0
17/04:30am 23.9 23.8 13.8 53 5.9 SE 7 9 4 5 1011.8 - 0.0
17/04:00am 21.9 22.8 16.7 72 3.2 SSE 7 11 4 6 1011.4 - 0.0
17/03:30am 23.5 23.4 13.8 54 5.7 ESE 7 11 4 6 1011.4 - 0.0
17/03:00am 21.7 22.4 16.2 71 3.3 SE 7 9 4 5 1011.2 1010.9 0.0
17/02:30am 22.9 23.5 15.2 62 4.6 ESE 6 7 3 4 1011.1 - 0.0
17/02:00am 21.7 23.0 17.0 74 2.9 SE 6 9 3 5 1011.2 - 0.0
17/01:30am 24.8 24.1 14.2 51 6.3 SE 11 13 6 7 1011.4 - 0.0
17/01:00am 23.5 23.7 15.7 61 4.7 E 9 11 5 6 1011.4 - 0.0
17/12:30am 23.3 24.1 16.4 65 4.2 SE 7 7 4 4 1011.6 - 0.0
17/12:00am 22.0 23.8 18.3 79 2.3 E 6 9 3 5 1011.8 1011.5 0.0
 
Date/Time
WST
Temp
°C
App
Temp
°C
Dew
Point
Rel
Hum
%
Delta-T
°C
Wind Press
QNH
hPa
Press
MSL
hPa
Rain
since 9 am
mm
Dir
 
Spd
km/h
Gust
km/h
Spd
kts
Gust
kts
16/11:30pm 22.0 23.7 18.5 80 2.2 SSE 7 9 4 5 1012.0 - 0.0
16/11:00pm 22.6 24.8 19.1 80 2.2 SE 6 7 3 4 1012.2 - 0.0
16/10:30pm 22.7 25.0 18.6 77 2.6 SE 4 6 2 3 1012.2 - 0.0
16/10:00pm 22.9 26.2 19.0 78 2.5 CALM 0 0 0 0 1012.0 - 0.0
16/09:30pm 23.4 25.6 18.3 73 3.2 NE 4 9 2 5 1011.9 - 0.0
16/09:00pm 23.2 26.5 19.0 77 2.7 CALM 0 0 0 0 1011.8 1011.5 0.0
16/08:30pm 23.5 26.4 18.3 72 3.3 CALM 0 0 0 0 1011.7 - 0.0
16/08:00pm 24.4 27.1 17.7 66 4.2 CALM 0 0 0 0 1011.5 - 0.0
16/07:30pm 25.6 27.2 16.0 55 5.9 S 2 7 1 4 1011.3 - 0.0
16/07:00pm 25.8 26.9 16.6 56 5.7 S 6 7 3 4 1011.1 - 0.0
16/06:30pm 28.7 28.0 13.2 38 9.2 ESE 9 13 5 7 1010.6 - 0.0
16/06:00pm 28.7 28.9 14.7 42 8.5 E 7 9 4 5 1010.3 1010.0 0.0
16/05:30pm 29.7 28.5 12.8 35 10.0 E 11 13 6 7 1010.0 - 0.0
16/05:00pm 31.1 29.4 12.6 32 11.0 E 13 17 7 9 1009.8 - 0.0
16/04:30pm 32.6 30.7 11.7 28 12.3 ESE 13 22 7 12 1009.6 - 0.0
16/04:00pm 33.3 31.3 11.6 26 12.8 ESE 13 17 7 9 1009.4 - 0.0
16/03:30pm 33.5 29.9 9.8 23 13.6 ESE 19 26 10 14 1009.3 - 0.0
16/03:00pm 34.0 31.3 10.2 23 13.8 SE 15 22 8 12 1009.3 1009.0 0.0
16/02:30pm 34.2 31.2 10.8 24 13.7 E 17 28 9 15 1009.4 - 0.0
16/02:00pm 34.1 30.8 10.9 24 13.6 E 19 28 10 15 1009.5 - 0.0
16/01:30pm 34.0 30.6 10.7 24 13.6 E 19 26 10 14 1009.8 - 0.0
16/01:00pm 33.5 30.2 10.9 25 13.2 ESE 19 28 10 15 1010.4 - 0.0
16/12:30pm 33.7 30.6 11.7 26 13.0 ESE 19 30 10 16 1010.7 - 0.0
16/12:00pm 34.0 30.8 12.0 26 13.1 E 20 28 11 15 1011.0 1010.7 0.0
16/11:30am 33.1 30.3 11.3 26 12.8 SE 17 22 9 12 1011.5 - 0.0
16/11:00am 33.1 30.1 12.5 28 12.3 ESE 20 28 11 15 1012.1 - 0.0
16/10:30am 32.5 29.3 11.8 28 12.2 E 20 26 11 14 1012.7 - 0.0
16/10:00am 32.0 30.4 11.7 28 11.9 SE 11 20 6 11 1013.1 - 0.0
16/09:30am 30.9 30.1 12.9 33 10.7 ESE 9 15 5 8 1013.7 - 0.0
16/09:00am 30.6 29.4 12.7 33 10.6 SE 11 17 6 9 1013.9 1013.6 0.0
16/08:30am 29.3 28.2 13.1 37 9.6 SSE 11 15 6 8 1013.8 - 0.0
16/08:00am 28.1 27.3 14.1 42 8.4 S 11 15 6 8 1013.7 - 0.0
16/07:30am 27.4 27.8 15.2 47 7.4 SE 7 9 4 5 1013.4 - 0.0
16/07:00am 26.0 26.8 15.9 53 6.2 SSE 6 9 3 5 1013.3 - 0.0
16/06:30am 22.5 24.8 18.5 78 2.5 S 4 7 2 4 1013.1 - 0.0
16/06:00am 20.3 22.0 16.3 78 2.4 SSE 2 7 1 4 1012.8 1012.5 0.0
16/05:30am 20.3 22.3 16.0 76 2.6 CALM 0 4 0 2 1012.6 - 0.0
16/05:00am 21.8 22.4 15.8 68 3.6 SSE 7 9 4 5 1012.4 - 0.0
16/04:30am 22.8 22.9 15.5 63 4.4 S 9 11 5 6 1012.1 - 0.0
16/04:00am 22.7 23.1 16.3 67 3.9 S 9 9 5 5 1011.9 - 0.0
16/03:55am 22.5 23.0 16.6 69 3.6 S 9 11 5 6 1011.9 - 0.0
16/03:32am 21.1 23.2 18.0 82 1.9 S 4 9 2 5 1011.7 - 0.0
16/03:30am 20.8 23.3 18.2 85 1.6 S 2 7 1 4 1011.7 - 0.0
16/03:00am 21.5 23.2 18.0 80 2.2 S 6 7 3 4 1011.6 1011.3 0.0
16/02:30am 23.4 24.5 18.0 71 3.4 S 9 9 5 5 1011.5 - 0.0
16/02:00am 22.1 23.0 17.6 75 2.8 SSW 9 9 5 5 1011.6 - 0.0
16/01:30am 20.9 23.1 19.3 90 1.0 S 6 7 3 4 1011.6 - 0.0
16/01:28am 20.9 23.1 19.3 90 1.0 SSW 6 9 3 5 1011.6 - 0.0
16/01:07am 21.4 23.6 19.5 89 1.2 S 7 7 4 4 1011.7 - 0.0
16/01:00am 21.3 23.6 19.4 89 1.2 SSE 6 7 3 4 1011.7 - 0.0
16/12:30am 22.3 25.8 19.6 85 1.7 CALM 0 2 0 1 1012.0 - 0.0
16/12:00am 21.4 24.4 19.2 87 1.4 ESE 2 7 1 4 1012.2 1011.9 0.0
 
Date/Time
WST
Temp
°C
App
Temp
°C
Dew
Point
Rel
Hum
%
Delta-T
°C
Wind Press
QNH
hPa
Press
MSL
hPa
Rain
since 9 am
mm
Dir
 
Spd
km/h
Gust
km/h
Spd
kts
Gust
kts
15/11:30pm 21.5 24.8 19.0 86 1.6 CALM 0 0 0 0 1012.4 - 0.0
15/11:12pm 21.6 24.8 18.9 84 1.7 CALM 0 0 0 0 1012.4 - 0.0
15/11:00pm 21.2 24.3 18.7 86 1.6 CALM 0 0 0 0 1012.5 - 0.0
15/10:56pm 21.6 24.7 18.7 83 1.8 CALM 0 0 0 0 1012.5 - 0.0
15/10:30pm 22.5 25.7 18.9 80 2.3 CALM 0 0 0 0 1012.5 - 0.0
15/10:22pm 22.3 25.2 18.3 78 2.5 CALM 0 2 0 1 1012.5 - 0.0
15/10:00pm 21.9 24.9 18.4 80 2.2 CALM 0 0 0 0 1012.5 - 0.0
15/09:50pm 21.9 24.8 18.2 79 2.3 CALM 0 0 0 0 1012.5 - 0.0
15/09:30pm 22.6 25.1 19.1 80 2.2 ESE 4 7 2 4 1012.5 - 0.0
15/09:18pm 22.4 25.6 18.9 80 2.2 CALM 0 4 0 2 1012.4 - 0.0
15/09:00pm 23.0 26.1 18.7 77 2.7 CALM 0 0 0 0 1012.3 1012.0 0.0

Other Formats:

Comma delimited format used in spreadsheet applications
http://www.bom.gov.au/fwo/IDW60801/IDW60801.94216.axf

JavaScript Object Notation format (JSON) in row-major order
http://www.bom.gov.au/fwo/IDW60801/IDW60801.94216.json